sensor_id;sensor_type;location;lat;lon;timestamp;P1;durP1;ratioP1;P2;durP2;ratioP2
8046;SDS011;67150;42.516;23.358;2023-02-01T00:00:25;2.50;;;2.30;;
8046;SDS011;67150;42.516;23.358;2023-02-01T00:03:11;2.40;;;2.20;;
8046;SDS011;67150;42.516;23.358;2023-02-01T00:05:58;2.53;;;2.33;;
8046;SDS011;67150;42.516;23.358;2023-02-01T00:08:45;2.20;;;2.10;;
8046;SDS011;67150;42.516;23.358;2023-02-01T00:11:35;2.40;;;2.30;;
8046;SDS011;67150;42.516;23.358;2023-02-01T00:14:21;2.60;;;2.40;;
8046;SDS011;67150;42.516;23.358;2023-02-01T00:17:07;2.43;;;2.20;;
8046;SDS011;67150;42.516;23.358;2023-02-01T00:19:54;2.50;;;2.40;;
8046;SDS011;67150;42.516;23.358;2023-02-01T00:22:40;2.60;;;2.40;;
8046;SDS011;67150;42.516;23.358;2023-02-01T00:25:25;2.70;;;2.50;;
8046;SDS011;67150;42.516;23.358;2023-02-01T00:28:12;2.60;;;2.40;;
8046;SDS011;67150;42.516;23.358;2023-02-01T00:30:59;2.43;;;2.27;;
8046;SDS011;67150;42.516;23.358;2023-02-01T00:33:46;2.57;;;2.37;;
8046;SDS011;67150;42.516;23.358;2023-02-01T00:36:33;2.70;;;2.50;;
8046;SDS011;67150;42.516;23.358;2023-02-01T00:39:19;2.57;;;2.37;;
8046;SDS011;67150;42.516;23.358;2023-02-01T00:42:05;2.47;;;2.30;;
8046;SDS011;67150;42.516;23.358;2023-02-01T00:44:52;2.73;;;2.53;;
8046;SDS011;67150;42.516;23.358;2023-02-01T00:47:38;2.60;;;2.40;;
8046;SDS011;67150;42.516;23.358;2023-02-01T00:50:24;2.83;;;2.63;;
8046;SDS011;67150;42.516;23.358;2023-02-01T00:53:10;2.77;;;2.57;;
8046;SDS011;67150;42.516;23.358;2023-02-01T00:55:57;2.90;;;2.70;;
8046;SDS011;67150;42.516;23.358;2023-02-01T00:58:43;2.77;;;2.57;;
8046;SDS011;67150;42.516;23.358;2023-02-01T01:01:30;2.33;;;2.23;;
8046;SDS011;67150;42.516;23.358;2023-02-01T01:04:16;2.70;;;2.50;;
8046;SDS011;67150;42.516;23.358;2023-02-01T01:07:01;2.90;;;2.70;;
8046;SDS011;67150;42.516;23.358;2023-02-01T01:09:47;2.70;;;2.50;;
8046;SDS011;67150;42.516;23.358;2023-02-01T01:12:33;2.80;;;2.60;;
8046;SDS011;67150;42.516;23.358;2023-02-01T01:15:19;2.70;;;2.50;;
8046;SDS011;67150;42.516;23.358;2023-02-01T01:18:06;2.83;;;2.63;;
8046;SDS011;67150;42.516;23.358;2023-02-01T01:20:53;2.90;;;2.70;;
8046;SDS011;67150;42.516;23.358;2023-02-01T01:23:38;3.40;;;2.80;;
8046;SDS011;67150;42.516;23.358;2023-02-01T01:26:25;2.87;;;2.67;;
8046;SDS011;67150;42.516;23.358;2023-02-01T01:29:12;2.77;;;2.57;;
8046;SDS011;67150;42.516;23.358;2023-02-01T01:31:58;2.63;;;2.43;;
8046;SDS011;67150;42.516;23.358;2023-02-01T01:34:45;3.03;;;2.73;;
8046;SDS011;67150;42.516;23.358;2023-02-01T01:37:31;2.83;;;2.63;;
8046;SDS011;67150;42.516;23.358;2023-02-01T01:40:17;3.00;;;2.80;;
8046;SDS011;67150;42.516;23.358;2023-02-01T01:43:03;2.83;;;2.63;;
8046;SDS011;67150;42.516;23.358;2023-02-01T01:45:55;2.70;;;2.50;;
8046;SDS011;67150;42.516;23.358;2023-02-01T01:48:40;2.60;;;2.40;;
8046;SDS011;67150;42.516;23.358;2023-02-01T01:51:28;3.33;;;2.60;;
8046;SDS011;67150;42.516;23.358;2023-02-01T01:54:18;3.53;;;2.83;;
8046;SDS011;67150;42.516;23.358;2023-02-01T01:57:07;2.77;;;2.57;;
8046;SDS011;67150;42.516;23.358;2023-02-01T01:59:57;2.77;;;2.57;;
8046;SDS011;67150;42.516;23.358;2023-02-01T02:02:51;2.77;;;2.57;;
8046;SDS011;67150;42.516;23.358;2023-02-01T02:05:40;2.20;;;2.10;;
8046;SDS011;67150;42.516;23.358;2023-02-01T02:08:28;2.80;;;2.60;;
8046;SDS011;67150;42.516;23.358;2023-02-01T02:11:14;2.70;;;2.50;;
8046;SDS011;67150;42.516;23.358;2023-02-01T02:14:02;2.70;;;2.50;;
8046;SDS011;67150;42.516;23.358;2023-02-01T02:16:57;2.87;;;2.67;;
8046;SDS011;67150;42.516;23.358;2023-02-01T02:26:55;2.90;;;2.50;;
8046;SDS011;67150;42.516;23.358;2023-02-01T02:30:00;2.73;;;2.53;;
8046;SDS011;67150;42.516;23.358;2023-02-01T02:36:29;2.57;;;2.37;;
8046;SDS011;67150;42.516;23.358;2023-02-01T02:39:23;3.17;;;2.63;;
8046;SDS011;67150;42.516;23.358;2023-02-01T02:42:20;2.73;;;2.53;;
8046;SDS011;67150;42.516;23.358;2023-02-01T02:45:34;2.77;;;2.57;;
8046;SDS011;67150;42.516;23.358;2023-02-01T02:48:46;2.67;;;2.47;;
8046;SDS011;67150;42.516;23.358;2023-02-01T02:51:38;2.40;;;2.20;;
8046;SDS011;67150;42.516;23.358;2023-02-01T02:54:49;2.60;;;2.20;;
8046;SDS011;67150;42.516;23.358;2023-02-01T02:57:39;2.37;;;2.17;;
8046;SDS011;67150;42.516;23.358;2023-02-01T03:00:44;2.83;;;2.50;;
8046;SDS011;67150;42.516;23.358;2023-02-01T03:03:50;2.47;;;2.27;;
8046;SDS011;67150;42.516;23.358;2023-02-01T03:06:55;2.70;;;2.50;;
8046;SDS011;67150;42.516;23.358;2023-02-01T03:09:41;2.33;;;2.20;;
8046;SDS011;67150;42.516;23.358;2023-02-01T03:12:31;2.50;;;2.30;;
8046;SDS011;67150;42.516;23.358;2023-02-01T03:15:51;2.60;;;2.40;;
8046;SDS011;67150;42.516;23.358;2023-02-01T03:18:45;2.70;;;2.50;;
8046;SDS011;67150;42.516;23.358;2023-02-01T03:21:38;2.43;;;2.10;;
8046;SDS011;67150;42.516;23.358;2023-02-01T03:24:27;2.20;;;2.00;;
8046;SDS011;67150;42.516;23.358;2023-02-01T03:27:18;1.80;;;1.70;;
8046;SDS011;67150;42.516;23.358;2023-02-01T03:30:09;2.03;;;1.90;;
8046;SDS011;67150;42.516;23.358;2023-02-01T03:33:02;2.00;;;1.90;;
8046;SDS011;67150;42.516;23.358;2023-02-01T03:35:59;1.60;;;1.60;;
8046;SDS011;67150;42.516;23.358;2023-02-01T03:38:57;1.67;;;1.57;;
8046;SDS011;67150;42.516;23.358;2023-02-01T03:41:49;2.00;;;1.80;;
8046;SDS011;67150;42.516;23.358;2023-02-01T03:44:39;1.83;;;1.73;;
8046;SDS011;67150;42.516;23.358;2023-02-01T03:47:28;1.80;;;1.70;;
8046;SDS011;67150;42.516;23.358;2023-02-01T03:50:21;1.80;;;1.70;;
8046;SDS011;67150;42.516;23.358;2023-02-01T03:53:10;1.90;;;1.80;;
8046;SDS011;67150;42.516;23.358;2023-02-01T03:56:01;2.00;;;1.90;;
8046;SDS011;67150;42.516;23.358;2023-02-01T03:58:48;2.33;;;1.80;;
8046;SDS011;67150;42.516;23.358;2023-02-01T04:01:43;1.80;;;1.70;;
8046;SDS011;67150;42.516;23.358;2023-02-01T04:04:29;1.80;;;1.70;;
8046;SDS011;67150;42.516;23.358;2023-02-01T04:07:15;1.70;;;1.60;;
8046;SDS011;67150;42.516;23.358;2023-02-01T04:10:02;2.13;;;1.80;;
8046;SDS011;67150;42.516;23.358;2023-02-01T04:12:50;1.97;;;1.77;;
8046;SDS011;67150;42.516;23.358;2023-02-01T04:15:36;1.70;;;1.60;;
8046;SDS011;67150;42.516;23.358;2023-02-01T04:18:22;1.90;;;1.70;;
8046;SDS011;67150;42.516;23.358;2023-02-01T04:21:08;1.93;;;1.83;;
8046;SDS011;67150;42.516;23.358;2023-02-01T04:23:54;1.83;;;1.73;;
8046;SDS011;67150;42.516;23.358;2023-02-01T04:26:40;2.00;;;1.90;;
8046;SDS011;67150;42.516;23.358;2023-02-01T04:29:28;3.00;;;2.37;;
8046;SDS011;67150;42.516;23.358;2023-02-01T04:32:13;2.43;;;2.00;;
8046;SDS011;67150;42.516;23.358;2023-02-01T04:34:59;2.63;;;2.43;;
8046;SDS011;67150;42.516;23.358;2023-02-01T04:37:46;2.63;;;2.10;;
8046;SDS011;67150;42.516;23.358;2023-02-01T04:40:31;2.43;;;2.23;;
8046;SDS011;67150;42.516;23.358;2023-02-01T04:43:18;2.57;;;2.30;;
8046;SDS011;67150;42.516;23.358;2023-02-01T04:46:05;2.40;;;2.20;;
8046;SDS011;67150;42.516;23.358;2023-02-01T04:48:51;7.07;;;2.73;;
8046;SDS011;67150;42.516;23.358;2023-02-01T04:51:37;3.73;;;2.43;;
8046;SDS011;67150;42.516;23.358;2023-02-01T04:54:22;2.43;;;2.23;;
8046;SDS011;67150;42.516;23.358;2023-02-01T04:57:09;2.50;;;2.30;;
8046;SDS011;67150;42.516;23.358;2023-02-01T04:59:55;2.73;;;2.50;;
8046;SDS011;67150;42.516;23.358;2023-02-01T05:02:42;2.77;;;2.50;;
8046;SDS011;67150;42.516;23.358;2023-02-01T05:05:28;2.37;;;2.27;;
8046;SDS011;67150;42.516;23.358;2023-02-01T05:08:14;3.03;;;2.50;;
8046;SDS011;67150;42.516;23.358;2023-02-01T05:11:00;2.70;;;2.47;;
8046;SDS011;67150;42.516;23.358;2023-02-01T05:13:47;3.97;;;2.50;;
8046;SDS011;67150;42.516;23.358;2023-02-01T05:16:33;3.53;;;2.67;;
8046;SDS011;67150;42.516;23.358;2023-02-01T05:19:20;2.70;;;2.50;;
8046;SDS011;67150;42.516;23.358;2023-02-01T05:22:06;2.90;;;2.40;;
8046;SDS011;67150;42.516;23.358;2023-02-01T05:24:52;2.43;;;2.23;;
8046;SDS011;67150;42.516;23.358;2023-02-01T05:27:38;3.07;;;2.57;;
8046;SDS011;67150;42.516;23.358;2023-02-01T05:30:24;2.50;;;2.30;;
8046;SDS011;67150;42.516;23.358;2023-02-01T05:33:09;3.33;;;2.60;;
8046;SDS011;67150;42.516;23.358;2023-02-01T05:35:57;3.23;;;2.37;;
8046;SDS011;67150;42.516;23.358;2023-02-01T05:38:43;2.67;;;2.47;;
8046;SDS011;67150;42.516;23.358;2023-02-01T05:41:28;5.33;;;2.40;;
8046;SDS011;67150;42.516;23.358;2023-02-01T05:44:14;2.60;;;2.40;;
8046;SDS011;67150;42.516;23.358;2023-02-01T05:47:00;2.90;;;2.60;;
8046;SDS011;67150;42.516;23.358;2023-02-01T05:49:45;3.77;;;2.40;;
8046;SDS011;67150;42.516;23.358;2023-02-01T05:52:32;2.60;;;2.40;;
8046;SDS011;67150;42.516;23.358;2023-02-01T05:55:19;2.60;;;2.40;;
8046;SDS011;67150;42.516;23.358;2023-02-01T05:58:05;3.53;;;2.50;;
8046;SDS011;67150;42.516;23.358;2023-02-01T06:00:51;2.63;;;2.43;;
8046;SDS011;67150;42.516;23.358;2023-02-01T06:03:38;2.73;;;2.40;;
8046;SDS011;67150;42.516;23.358;2023-02-01T06:06:24;2.80;;;2.43;;
8046;SDS011;67150;42.516;23.358;2023-02-01T06:09:12;2.90;;;2.70;;
8046;SDS011;67150;42.516;23.358;2023-02-01T06:11:57;2.90;;;2.70;;
8046;SDS011;67150;42.516;23.358;2023-02-01T06:14:44;2.57;;;2.37;;
8046;SDS011;67150;42.516;23.358;2023-02-01T06:17:30;5.10;;;2.57;;
8046;SDS011;67150;42.516;23.358;2023-02-01T06:20:16;2.90;;;2.60;;
8046;SDS011;67150;42.516;23.358;2023-02-01T06:23:02;3.10;;;2.60;;
8046;SDS011;67150;42.516;23.358;2023-02-01T06:25:51;2.90;;;2.70;;
8046;SDS011;67150;42.516;23.358;2023-02-01T06:28:37;3.00;;;2.67;;
8046;SDS011;67150;42.516;23.358;2023-02-01T06:31:23;2.90;;;2.70;;
8046;SDS011;67150;42.516;23.358;2023-02-01T06:34:10;2.93;;;2.70;;
8046;SDS011;67150;42.516;23.358;2023-02-01T06:36:55;3.00;;;2.70;;
8046;SDS011;67150;42.516;23.358;2023-02-01T06:39:41;3.60;;;2.73;;
8046;SDS011;67150;42.516;23.358;2023-02-01T06:42:28;2.83;;;2.50;;
8046;SDS011;67150;42.516;23.358;2023-02-01T06:45:14;3.53;;;1.93;;
8046;SDS011;67150;42.516;23.358;2023-02-01T06:48:00;1.93;;;1.77;;
8046;SDS011;67150;42.516;23.358;2023-02-01T06:50:45;5.07;;;2.43;;
8046;SDS011;67150;42.516;23.358;2023-02-01T06:53:31;3.00;;;2.30;;
8046;SDS011;67150;42.516;23.358;2023-02-01T06:56:17;2.50;;;2.30;;
8046;SDS011;67150;42.516;23.358;2023-02-01T06:59:05;4.00;;;2.47;;
8046;SDS011;67150;42.516;23.358;2023-02-01T07:01:51;5.23;;;2.03;;
8046;SDS011;67150;42.516;23.358;2023-02-01T07:04:37;11.93;;;2.70;;
8046;SDS011;67150;42.516;23.358;2023-02-01T07:07:23;7.70;;;2.60;;
8046;SDS011;67150;42.516;23.358;2023-02-01T07:10:15;2.87;;;2.47;;
8046;SDS011;67150;42.516;23.358;2023-02-01T07:12:48;4.13;;;2.47;;
8046;SDS011;67150;42.516;23.358;2023-02-01T07:15:35;4.10;;;2.60;;
8046;SDS011;67150;42.516;23.358;2023-02-01T07:18:21;5.67;;;3.37;;
8046;SDS011;67150;42.516;23.358;2023-02-01T07:21:07;4.20;;;2.40;;
8046;SDS011;67150;42.516;23.358;2023-02-01T07:23:53;4.37;;;2.87;;
8046;SDS011;67150;42.516;23.358;2023-02-01T07:26:39;10.03;;;3.10;;
8046;SDS011;67150;42.516;23.358;2023-02-01T07:29:08;5.63;;;3.30;;
8046;SDS011;67150;42.516;23.358;2023-02-01T07:31:40;3.77;;;2.80;;
8046;SDS011;67150;42.516;23.358;2023-02-01T07:34:10;7.50;;;2.97;;
8046;SDS011;67150;42.516;23.358;2023-02-01T07:36:38;4.73;;;2.90;;
8046;SDS011;67150;42.516;23.358;2023-02-01T07:39:27;4.07;;;2.70;;
8046;SDS011;67150;42.516;23.358;2023-02-01T07:42:15;5.03;;;2.70;;
8046;SDS011;67150;42.516;23.358;2023-02-01T07:45:01;3.00;;;2.70;;
8046;SDS011;67150;42.516;23.358;2023-02-01T07:47:50;3.93;;;2.77;;
8046;SDS011;67150;42.516;23.358;2023-02-01T07:50:37;4.17;;;2.63;;
8046;SDS011;67150;42.516;23.358;2023-02-01T07:53:15;2.57;;;2.30;;
8046;SDS011;67150;42.516;23.358;2023-02-01T07:55:50;3.10;;;2.50;;
8046;SDS011;67150;42.516;23.358;2023-02-01T07:58:41;3.60;;;2.40;;
8046;SDS011;67150;42.516;23.358;2023-02-01T08:01:27;3.93;;;2.63;;
8046;SDS011;67150;42.516;23.358;2023-02-01T08:04:16;2.70;;;2.50;;
8046;SDS011;67150;42.516;23.358;2023-02-01T08:07:02;2.93;;;2.50;;
8046;SDS011;67150;42.516;23.358;2023-02-01T08:09:48;3.00;;;2.60;;
8046;SDS011;67150;42.516;23.358;2023-02-01T08:12:37;4.57;;;2.40;;
8046;SDS011;67150;42.516;23.358;2023-02-01T08:15:24;2.93;;;2.20;;
8046;SDS011;67150;42.516;23.358;2023-02-01T08:18:18;2.63;;;2.37;;
8046;SDS011;67150;42.516;23.358;2023-02-01T08:21:06;2.30;;;2.10;;
8046;SDS011;67150;42.516;23.358;2023-02-01T08:23:38;3.23;;;2.00;;
8046;SDS011;67150;42.516;23.358;2023-02-01T08:26:23;2.47;;;2.27;;
8046;SDS011;67150;42.516;23.358;2023-02-01T08:29:10;2.73;;;2.07;;
8046;SDS011;67150;42.516;23.358;2023-02-01T08:31:39;2.77;;;2.20;;
8046;SDS011;67150;42.516;23.358;2023-02-01T08:34:10;2.27;;;2.10;;
8046;SDS011;67150;42.516;23.358;2023-02-01T08:37:03;3.90;;;2.30;;
8046;SDS011;67150;42.516;23.358;2023-02-01T08:39:51;2.43;;;2.23;;
8046;SDS011;67150;42.516;23.358;2023-02-01T08:42:37;2.20;;;2.00;;
8046;SDS011;67150;42.516;23.358;2023-02-01T08:45:47;4.97;;;2.30;;
8046;SDS011;67150;42.516;23.358;2023-02-01T08:48:44;4.83;;;2.40;;
8046;SDS011;67150;42.516;23.358;2023-02-01T08:51:39;3.33;;;2.57;;
8046;SDS011;67150;42.516;23.358;2023-02-01T08:54:26;4.13;;;3.10;;
8046;SDS011;67150;42.516;23.358;2023-02-01T08:57:12;2.60;;;2.40;;
8046;SDS011;67150;42.516;23.358;2023-02-01T08:59:40;2.67;;;2.47;;
8046;SDS011;67150;42.516;23.358;2023-02-01T09:02:10;3.93;;;2.13;;
8046;SDS011;67150;42.516;23.358;2023-02-01T09:04:40;3.10;;;2.60;;
8046;SDS011;67150;42.516;23.358;2023-02-01T09:07:08;3.83;;;2.30;;
8046;SDS011;67150;42.516;23.358;2023-02-01T09:09:37;4.10;;;2.47;;
8046;SDS011;67150;42.516;23.358;2023-02-01T09:12:05;9.00;;;2.70;;
8046;SDS011;67150;42.516;23.358;2023-02-01T09:14:33;9.57;;;2.80;;
8046;SDS011;67150;42.516;23.358;2023-02-01T09:17:19;5.27;;;2.80;;
8046;SDS011;67150;42.516;23.358;2023-02-01T09:20:05;6.90;;;2.80;;
8046;SDS011;67150;42.516;23.358;2023-02-01T09:22:51;3.60;;;2.50;;
8046;SDS011;67150;42.516;23.358;2023-02-01T09:25:38;6.63;;;2.83;;
8046;SDS011;67150;42.516;23.358;2023-02-01T09:28:25;10.93;;;3.03;;
8046;SDS011;67150;42.516;23.358;2023-02-01T09:31:11;3.60;;;2.50;;
8046;SDS011;67150;42.516;23.358;2023-02-01T09:33:56;5.63;;;2.70;;
8046;SDS011;67150;42.516;23.358;2023-02-01T09:36:42;5.43;;;3.10;;
8046;SDS011;67150;42.516;23.358;2023-02-01T09:39:28;8.30;;;2.77;;
8046;SDS011;67150;42.516;23.358;2023-02-01T09:42:24;2.97;;;2.67;;
8046;SDS011;67150;42.516;23.358;2023-02-01T09:45:29;2.87;;;2.57;;
8046;SDS011;67150;42.516;23.358;2023-02-01T09:48:24;5.37;;;2.83;;
8046;SDS011;67150;42.516;23.358;2023-02-01T09:51:19;5.33;;;2.87;;
8046;SDS011;67150;42.516;23.358;2023-02-01T09:54:09;3.70;;;2.70;;
8046;SDS011;67150;42.516;23.358;2023-02-01T09:57:00;2.77;;;2.37;;
8046;SDS011;67150;42.516;23.358;2023-02-01T09:59:54;2.77;;;2.50;;
8046;SDS011;67150;42.516;23.358;2023-02-01T10:02:46;5.10;;;2.60;;
8046;SDS011;67150;42.516;23.358;2023-02-01T10:05:48;6.17;;;2.57;;
8046;SDS011;67150;42.516;23.358;2023-02-01T10:08:54;4.33;;;2.40;;
8046;SDS011;67150;42.516;23.358;2023-02-01T10:11:58;3.00;;;2.70;;
8046;SDS011;67150;42.516;23.358;2023-02-01T10:15:01;3.10;;;2.80;;
8046;SDS011;67150;42.516;23.358;2023-02-01T10:18:03;3.00;;;2.70;;
8046;SDS011;67150;42.516;23.358;2023-02-01T10:21:10;2.90;;;2.60;;
8046;SDS011;67150;42.516;23.358;2023-02-01T10:24:08;2.87;;;2.53;;
8046;SDS011;67150;42.516;23.358;2023-02-01T10:27:07;2.80;;;2.60;;
8046;SDS011;67150;42.516;23.358;2023-02-01T10:30:06;2.80;;;2.60;;
8046;SDS011;67150;42.516;23.358;2023-02-01T10:33:14;2.73;;;2.50;;
8046;SDS011;67150;42.516;23.358;2023-02-01T10:36:04;2.53;;;2.37;;
8046;SDS011;67150;42.516;23.358;2023-02-01T10:38:59;3.17;;;2.50;;
8046;SDS011;67150;42.516;23.358;2023-02-01T10:41:45;3.43;;;2.63;;
8046;SDS011;67150;42.516;23.358;2023-02-01T10:44:32;4.30;;;3.13;;
8046;SDS011;67150;42.516;23.358;2023-02-01T10:47:28;2.70;;;2.50;;
8046;SDS011;67150;42.516;23.358;2023-02-01T10:50:16;3.83;;;2.70;;
8046;SDS011;67150;42.516;23.358;2023-02-01T10:53:11;2.73;;;2.40;;
8046;SDS011;67150;42.516;23.358;2023-02-01T10:56:04;4.60;;;2.80;;
8046;SDS011;67150;42.516;23.358;2023-02-01T10:58:59;2.73;;;2.50;;
8046;SDS011;67150;42.516;23.358;2023-02-01T11:01:46;2.80;;;2.60;;
8046;SDS011;67150;42.516;23.358;2023-02-01T11:04:35;3.17;;;2.50;;
8046;SDS011;67150;42.516;23.358;2023-02-01T11:07:22;5.73;;;2.73;;
8046;SDS011;67150;42.516;23.358;2023-02-01T11:10:12;3.30;;;2.60;;
8046;SDS011;67150;42.516;23.358;2023-02-01T11:13:21;3.10;;;2.80;;
8046;SDS011;67150;42.516;23.358;2023-02-01T11:16:14;2.50;;;2.30;;
8046;SDS011;67150;42.516;23.358;2023-02-01T11:19:00;4.23;;;2.53;;
8046;SDS011;67150;42.516;23.358;2023-02-01T11:21:48;2.90;;;2.30;;
8046;SDS011;67150;42.516;23.358;2023-02-01T11:24:36;2.87;;;2.67;;
8046;SDS011;67150;42.516;23.358;2023-02-01T11:27:23;2.47;;;2.20;;
8046;SDS011;67150;42.516;23.358;2023-02-01T11:30:15;2.57;;;2.37;;
8046;SDS011;67150;42.516;23.358;2023-02-01T11:33:04;2.37;;;2.17;;
8046;SDS011;67150;42.516;23.358;2023-02-01T11:35:52;2.80;;;2.60;;
8046;SDS011;67150;42.516;23.358;2023-02-01T11:38:38;2.60;;;2.40;;
8046;SDS011;67150;42.516;23.358;2023-02-01T11:41:25;2.50;;;2.30;;
8046;SDS011;67150;42.516;23.358;2023-02-01T11:44:20;2.30;;;2.20;;
8046;SDS011;67150;42.516;23.358;2023-02-01T11:47:22;2.37;;;2.17;;
8046;SDS011;67150;42.516;23.358;2023-02-01T11:50:12;3.13;;;2.47;;
8046;SDS011;67150;42.516;23.358;2023-02-01T11:53:09;2.73;;;2.53;;
8046;SDS011;67150;42.516;23.358;2023-02-01T11:56:10;2.40;;;2.20;;
8046;SDS011;67150;42.516;23.358;2023-02-01T11:59:09;3.33;;;2.03;;
8046;SDS011;67150;42.516;23.358;2023-02-01T12:05:33;2.00;;;1.90;;
8046;SDS011;67150;42.516;23.358;2023-02-01T12:08:29;2.20;;;2.00;;
8046;SDS011;67150;42.516;23.358;2023-02-01T12:11:44;2.03;;;1.93;;
8046;SDS011;67150;42.516;23.358;2023-02-01T12:14:43;2.30;;;2.10;;
8046;SDS011;67150;42.516;23.358;2023-02-01T12:17:45;2.07;;;1.93;;
8046;SDS011;67150;42.516;23.358;2023-02-01T12:20:54;2.00;;;1.90;;
8046;SDS011;67150;42.516;23.358;2023-02-01T12:23:52;1.90;;;1.80;;
8046;SDS011;67150;42.516;23.358;2023-02-01T12:26:50;3.17;;;2.10;;
8046;SDS011;67150;42.516;23.358;2023-02-01T12:29:53;2.10;;;2.00;;
8046;SDS011;67150;42.516;23.358;2023-02-01T12:32:51;2.07;;;1.87;;
8046;SDS011;67150;42.516;23.358;2023-02-01T12:36:09;1.90;;;1.80;;
8046;SDS011;67150;42.516;23.358;2023-02-01T12:39:01;2.40;;;2.10;;
8046;SDS011;67150;42.516;23.358;2023-02-01T12:41:56;2.40;;;2.00;;
8046;SDS011;67150;42.516;23.358;2023-02-01T12:44:47;1.70;;;1.60;;
8046;SDS011;67150;42.516;23.358;2023-02-01T12:47:39;2.03;;;1.70;;
8046;SDS011;67150;42.516;23.358;2023-02-01T12:50:28;2.20;;;1.90;;
8046;SDS011;67150;42.516;23.358;2023-02-01T12:53:22;2.10;;;1.90;;
8046;SDS011;67150;42.516;23.358;2023-02-01T12:56:12;2.00;;;1.80;;
8046;SDS011;67150;42.516;23.358;2023-02-01T12:59:04;1.90;;;1.80;;
8046;SDS011;67150;42.516;23.358;2023-02-01T13:01:56;3.07;;;2.73;;
8046;SDS011;67150;42.516;23.358;2023-02-01T13:04:50;2.00;;;1.90;;
8046;SDS011;67150;42.516;23.358;2023-02-01T13:07:47;1.90;;;1.80;;
8046;SDS011;67150;42.516;23.358;2023-02-01T13:10:40;2.27;;;2.00;;
8046;SDS011;67150;42.516;23.358;2023-02-01T13:13:31;2.00;;;1.90;;
8046;SDS011;67150;42.516;23.358;2023-02-01T13:16:25;2.27;;;2.07;;
8046;SDS011;67150;42.516;23.358;2023-02-01T13:19:19;1.87;;;1.77;;
8046;SDS011;67150;42.516;23.358;2023-02-01T13:22:11;2.00;;;1.90;;
8046;SDS011;67150;42.516;23.358;2023-02-01T13:25:00;2.10;;;1.90;;
8046;SDS011;67150;42.516;23.358;2023-02-01T13:27:49;1.90;;;1.80;;
8046;SDS011;67150;42.516;23.358;2023-02-01T13:30:52;1.93;;;1.73;;
8046;SDS011;67150;42.516;23.358;2023-02-01T13:33:50;1.77;;;1.67;;
8046;SDS011;67150;42.516;23.358;2023-02-01T13:36:47;1.70;;;1.60;;
8046;SDS011;67150;42.516;23.358;2023-02-01T13:39:48;2.20;;;2.00;;
8046;SDS011;67150;42.516;23.358;2023-02-01T13:42:47;2.03;;;1.93;;
8046;SDS011;67150;42.516;23.358;2023-02-01T13:45:41;1.87;;;1.77;;
8046;SDS011;67150;42.516;23.358;2023-02-01T13:48:32;1.60;;;1.50;;
8046;SDS011;67150;42.516;23.358;2023-02-01T13:51:36;1.90;;;1.80;;
8046;SDS011;67150;42.516;23.358;2023-02-01T13:54:27;1.80;;;1.70;;
8046;SDS011;67150;42.516;23.358;2023-02-01T13:57:28;1.63;;;1.53;;
8046;SDS011;67150;42.516;23.358;2023-02-01T14:00:24;1.70;;;1.60;;
8046;SDS011;67150;42.516;23.358;2023-02-01T14:03:15;1.70;;;1.60;;
8046;SDS011;67150;42.516;23.358;2023-02-01T14:06:03;1.50;;;1.40;;
8046;SDS011;67150;42.516;23.358;2023-02-01T14:09:18;1.70;;;1.60;;
8046;SDS011;67150;42.516;23.358;2023-02-01T14:15:42;1.77;;;1.67;;
8046;SDS011;67150;42.516;23.358;2023-02-01T14:19:00;2.07;;;1.90;;
8046;SDS011;67150;42.516;23.358;2023-02-01T14:21:48;2.03;;;1.30;;
8046;SDS011;67150;42.516;23.358;2023-02-01T14:24:41;1.60;;;1.50;;
8046;SDS011;67150;42.516;23.358;2023-02-01T14:27:35;1.60;;;1.50;;
8046;SDS011;67150;42.516;23.358;2023-02-01T14:30:21;1.70;;;1.60;;
8046;SDS011;67150;42.516;23.358;2023-02-01T14:33:16;1.53;;;1.50;;
8046;SDS011;67150;42.516;23.358;2023-02-01T14:36:06;1.50;;;1.40;;
8046;SDS011;67150;42.516;23.358;2023-02-01T14:38:53;1.63;;;1.50;;
8046;SDS011;67150;42.516;23.358;2023-02-01T14:41:40;1.70;;;1.60;;
8046;SDS011;67150;42.516;23.358;2023-02-01T14:44:33;1.50;;;1.40;;
8046;SDS011;67150;42.516;23.358;2023-02-01T14:47:30;1.60;;;1.50;;
8046;SDS011;67150;42.516;23.358;2023-02-01T14:50:32;1.60;;;1.50;;
8046;SDS011;67150;42.516;23.358;2023-02-01T14:53:25;1.60;;;1.50;;
8046;SDS011;67150;42.516;23.358;2023-02-01T14:56:18;1.50;;;1.40;;
8046;SDS011;67150;42.516;23.358;2023-02-01T14:59:06;1.60;;;1.50;;
8046;SDS011;67150;42.516;23.358;2023-02-01T15:01:57;1.53;;;1.43;;
8046;SDS011;67150;42.516;23.358;2023-02-01T15:04:45;1.60;;;1.50;;
8046;SDS011;67150;42.516;23.358;2023-02-01T15:07:32;1.60;;;1.50;;
8046;SDS011;67150;42.516;23.358;2023-02-01T15:10:19;1.50;;;1.40;;
8046;SDS011;67150;42.516;23.358;2023-02-01T15:13:12;1.60;;;1.50;;
8046;SDS011;67150;42.516;23.358;2023-02-01T15:16:05;1.50;;;1.43;;
8046;SDS011;67150;42.516;23.358;2023-02-01T15:19:08;1.60;;;1.50;;
8046;SDS011;67150;42.516;23.358;2023-02-01T15:21:57;1.60;;;1.50;;
8046;SDS011;67150;42.516;23.358;2023-02-01T15:24:51;1.50;;;1.40;;
8046;SDS011;67150;42.516;23.358;2023-02-01T15:27:38;1.73;;;1.63;;
8046;SDS011;67150;42.516;23.358;2023-02-01T15:30:24;1.60;;;1.50;;
8046;SDS011;67150;42.516;23.358;2023-02-01T15:33:15;1.70;;;1.60;;
8046;SDS011;67150;42.516;23.358;2023-02-01T15:36:09;1.57;;;1.47;;
8046;SDS011;67150;42.516;23.358;2023-02-01T15:42:10;5.07;;;1.70;;
8046;SDS011;67150;42.516;23.358;2023-02-01T15:45:03;1.60;;;1.50;;
8046;SDS011;67150;42.516;23.358;2023-02-01T15:47:50;1.47;;;1.37;;
8046;SDS011;67150;42.516;23.358;2023-02-01T15:50:38;1.70;;;1.60;;
8046;SDS011;67150;42.516;23.358;2023-02-01T15:53:25;1.60;;;1.50;;
8046;SDS011;67150;42.516;23.358;2023-02-01T15:56:15;1.70;;;1.60;;
8046;SDS011;67150;42.516;23.358;2023-02-01T15:59:13;1.77;;;1.67;;
8046;SDS011;67150;42.516;23.358;2023-02-01T16:02:02;1.90;;;1.80;;
8046;SDS011;67150;42.516;23.358;2023-02-01T16:04:47;1.67;;;1.57;;
8046;SDS011;67150;42.516;23.358;2023-02-01T16:07:35;1.70;;;1.60;;
8046;SDS011;67150;42.516;23.358;2023-02-01T16:10:23;1.70;;;1.60;;
8046;SDS011;67150;42.516;23.358;2023-02-01T16:13:12;1.90;;;1.80;;
8046;SDS011;67150;42.516;23.358;2023-02-01T16:16:00;1.50;;;1.40;;
8046;SDS011;67150;42.516;23.358;2023-02-01T16:18:47;1.60;;;1.50;;
8046;SDS011;67150;42.516;23.358;2023-02-01T16:21:34;1.57;;;1.47;;
8046;SDS011;67150;42.516;23.358;2023-02-01T16:24:20;1.60;;;1.50;;
8046;SDS011;67150;42.516;23.358;2023-02-01T16:27:08;1.60;;;1.50;;
8046;SDS011;67150;42.516;23.358;2023-02-01T16:29:54;1.70;;;1.60;;
8046;SDS011;67150;42.516;23.358;2023-02-01T16:32:42;1.73;;;1.50;;
8046;SDS011;67150;42.516;23.358;2023-02-01T16:35:28;1.60;;;1.50;;
8046;SDS011;67150;42.516;23.358;2023-02-01T16:38:19;1.50;;;1.40;;
8046;SDS011;67150;42.516;23.358;2023-02-01T16:41:09;1.57;;;1.47;;
8046;SDS011;67150;42.516;23.358;2023-02-01T16:43:57;1.60;;;1.50;;
8046;SDS011;67150;42.516;23.358;2023-02-01T16:46:44;1.73;;;1.63;;
8046;SDS011;67150;42.516;23.358;2023-02-01T16:49:32;1.60;;;1.50;;
8046;SDS011;67150;42.516;23.358;2023-02-01T16:52:19;1.70;;;1.60;;
8046;SDS011;67150;42.516;23.358;2023-02-01T16:55:08;2.00;;;1.73;;
8046;SDS011;67150;42.516;23.358;2023-02-01T16:57:57;1.80;;;1.70;;
8046;SDS011;67150;42.516;23.358;2023-02-01T17:00:42;1.70;;;1.60;;
8046;SDS011;67150;42.516;23.358;2023-02-01T17:03:29;1.60;;;1.50;;
8046;SDS011;67150;42.516;23.358;2023-02-01T17:06:17;1.87;;;1.70;;
8046;SDS011;67150;42.516;23.358;2023-02-01T17:09:05;1.60;;;1.50;;
8046;SDS011;67150;42.516;23.358;2023-02-01T17:11:51;1.87;;;1.77;;
8046;SDS011;67150;42.516;23.358;2023-02-01T17:14:38;1.90;;;1.80;;
8046;SDS011;67150;42.516;23.358;2023-02-01T17:17:27;1.70;;;1.60;;
8046;SDS011;67150;42.516;23.358;2023-02-01T17:20:20;1.67;;;1.57;;
8046;SDS011;67150;42.516;23.358;2023-02-01T17:23:09;1.93;;;1.80;;